createdAt,value
2023-03-16T00:00:26.085Z,99022.28
2023-03-16T00:01:27.981Z,99026.88
2023-03-16T00:02:29.756Z,99028.50
2023-03-16T00:03:31.720Z,99027.97
2023-03-16T00:04:37.784Z,99022.56
2023-03-16T00:05:39.800Z,99027.69
2023-03-16T00:06:41.639Z,99026.59
2023-03-16T00:07:43.946Z,99023.38
2023-03-16T00:08:46.661Z,99032.53
2023-03-16T00:09:48.652Z,99030.38
2023-03-16T00:10:54.013Z,99028.78
2023-03-16T00:11:55.805Z,99024.72
2023-03-16T00:12:58.081Z,99030.94
2023-03-16T00:13:59.931Z,99032.81
2023-03-16T00:15:02.318Z,99027.69
2023-03-16T00:16:04.682Z,99033.63
2023-03-16T00:17:06.586Z,99025.78
2023-03-16T00:18:08.445Z,99039.03
2023-03-16T00:19:10.929Z,99027.41
2023-03-16T00:20:13.368Z,99029.06
2023-03-16T00:21:15.320Z,99028.25
2023-03-16T00:22:17.191Z,99029.84
2023-03-16T00:23:19.726Z,99030.94
2023-03-16T00:24:24.996Z,99030.09
2023-03-16T00:25:26.819Z,99030.38
2023-03-16T00:26:28.773Z,99032.28
2023-03-16T00:27:30.578Z,99028.25
2023-03-16T00:28:35.294Z,99035.25
2023-03-16T00:29:37.036Z,99034.97
2023-03-16T00:30:38.887Z,99030.66
2023-03-16T00:31:45.248Z,99036.34
2023-03-16T00:32:47.179Z,99038.47
2023-03-16T00:33:48.993Z,99034.97
2023-03-16T00:34:51.688Z,99033.09
2023-03-16T00:36:02.323Z,99032.81
2023-03-16T00:37:04.262Z,99027.13
2023-03-16T00:38:06.092Z,99023.91
2023-03-16T00:39:08.312Z,99034.69
2023-03-16T00:40:12.509Z,99027.69
2023-03-16T00:41:17.043Z,99024.72
2023-03-16T00:42:20.239Z,99029.03
2023-03-16T00:43:22.467Z,99025.53
2023-03-16T00:44:24.293Z,99027.13
2023-03-16T00:45:26.167Z,99024.72
2023-03-16T00:46:28.076Z,99022.31
2023-03-16T00:47:33.869Z,99023.38
2023-03-16T00:48:43.405Z,99026.59
2023-03-16T00:49:45.532Z,99025.53
2023-03-16T00:50:47.952Z,99026.09
2023-03-16T00:51:49.885Z,99026.88
2023-03-16T00:52:53.640Z,99028.78
2023-03-16T00:53:55.418Z,99025.28
2023-03-16T00:54:57.395Z,99031.47
2023-03-16T00:55:59.459Z,99025.00
2023-03-16T00:57:02.413Z,99021.50
2023-03-16T00:58:05.039Z,99023.09
2023-03-16T00:59:08.806Z,99017.97
2023-03-16T01:00:17.109Z,99022.28
2023-03-16T01:01:20.400Z,99023.91
2023-03-16T01:02:25.636Z,99017.19
2023-03-16T01:03:27.488Z,99022.84
2023-03-16T01:04:29.390Z,99017.72
2023-03-16T01:05:33.528Z,99023.13
2023-03-16T01:06:35.348Z,99016.94
2023-03-16T01:07:37.129Z,99015.31
2023-03-16T01:08:40.982Z,99013.69
2023-03-16T01:09:43.979Z,99017.47
2023-03-16T01:10:45.853Z,99018.53
2023-03-16T01:11:51.409Z,99019.38
2023-03-16T01:12:56.030Z,99016.91
2023-03-16T01:13:57.884Z,99019.63
2023-03-16T01:15:00.406Z,99011.00
2023-03-16T01:16:02.856Z,99013.16
2023-03-16T01:17:08.547Z,99011.28
2023-03-16T01:18:10.577Z,99009.66
2023-03-16T01:19:13.590Z,99005.34
2023-03-16T01:20:19.251Z,99008.84
2023-03-16T01:21:22.113Z,99003.75
2023-03-16T01:22:23.866Z,99001.06
2023-03-16T01:23:25.699Z,99000.53
2023-03-16T01:24:27.983Z,99000.75
2023-03-16T01:25:29.814Z,99003.47
2023-03-16T01:26:32.719Z,98996.72
2023-03-16T01:27:34.547Z,99000.22
2023-03-16T01:28:37.317Z,99006.72
2023-03-16T01:29:40.393Z,99001.59
2023-03-16T01:30:43.957Z,99001.88
2023-03-16T01:31:46.003Z,99003.47
2023-03-16T01:32:48.229Z,99013.97
2023-03-16T01:33:50.136Z,99000.25
2023-03-16T01:34:51.969Z,99006.44
2023-03-16T01:35:59.085Z,99006.19
2023-03-16T01:37:02.084Z,99007.53
2023-03-16T01:38:04.664Z,98998.09
2023-03-16T01:39:06.819Z,99001.84
2023-03-16T01:40:11.442Z,98999.44
2023-03-16T01:41:14.531Z,99002.66
2023-03-16T01:42:17.003Z,99001.06
2023-03-16T01:43:22.957Z,99002.13
2023-03-16T01:44:32.662Z,98996.75
2023-03-16T01:46:15.504Z,98993.22
2023-03-16T01:47:18.465Z,98987.06
2023-03-16T01:48:25.033Z,98985.16
2023-03-16T01:49:38.571Z,98987.31
2023-03-16T01:50:42.255Z,98985.41
2023-03-16T01:51:56.237Z,98991.06
2023-03-16T01:52:58.016Z,98989.19
2023-03-16T01:54:09.873Z,98988.91
2023-03-16T01:55:15.684Z,98988.94
2023-03-16T01:56:25.926Z,98985.69
2023-03-16T01:57:37.036Z,98990.25
2023-03-16T01:58:41.049Z,98987.31
2023-03-16T02:00:19.957Z,98986.75
2023-03-16T02:01:22.011Z,98984.88
2023-03-16T02:02:29.926Z,98984.63
2023-03-16T02:03:34.973Z,98980.03
2023-03-16T02:04:49.194Z,98984.59
2023-03-16T02:06:03.230Z,98986.75
2023-03-16T02:07:09.050Z,98987.81
2023-03-16T02:08:12.436Z,98981.09
2023-03-16T02:09:16.945Z,98976.81
2023-03-16T02:10:20.580Z,98983.00
2023-03-16T02:11:23.614Z,98980.56
2023-03-16T02:12:26.688Z,98985.44
2023-03-16T02:13:29.621Z,98983.53
2023-03-16T02:14:31.683Z,98982.75
2023-03-16T02:15:35.944Z,98977.63
2023-03-16T02:16:39.344Z,98977.63
2023-03-16T02:17:45.284Z,98974.38
2023-03-16T02:18:48.946Z,98974.09
2023-03-16T02:20:09.907Z,98973.28
2023-03-16T02:21:17.040Z,98964.66
2023-03-16T02:22:20.434Z,98965.78
2023-03-16T02:23:25.557Z,98962.50
2023-03-16T02:24:27.749Z,98961.72
2023-03-16T02:26:07.743Z,98964.94
2023-03-16T02:27:30.647Z,98967.91
2023-03-16T02:29:20.201Z,98969.53
2023-03-16T02:30:22.974Z,98959.56
2023-03-16T02:31:25.088Z,98959.28
2023-03-16T02:32:30.527Z,98960.38
2023-03-16T02:33:34.808Z,98958.75
2023-03-16T02:34:37.108Z,98955.00
2023-03-16T02:35:39.016Z,98953.66
2023-03-16T02:36:43.709Z,98948.81
2023-03-16T02:37:45.496Z,98950.41
2023-03-16T02:38:47.487Z,98956.88
2023-03-16T02:39:49.349Z,98955.81
2023-03-16T02:41:19.648Z,98959.56
2023-03-16T02:42:25.217Z,98949.88
2023-03-16T02:43:33.434Z,98951.47
2023-03-16T02:44:40.680Z,98952.03
2023-03-16T02:45:51.586Z,98950.94
2023-03-16T02:47:03.835Z,98949.31
2023-03-16T02:48:14.989Z,98942.59
2023-03-16T02:49:35.442Z,98953.38
2023-03-16T02:50:44.199Z,98948.50
2023-03-16T02:51:47.474Z,98948.81
2023-03-16T02:52:49.288Z,98945.56
2023-03-16T02:53:51.132Z,98959.00
2023-03-16T02:54:53.084Z,98955.53
2023-03-16T02:55:54.945Z,98956.59
2023-03-16T02:56:56.778Z,98955.00
2023-03-16T02:57:58.526Z,98956.06
2023-03-16T02:59:00.440Z,98958.22
2023-03-16T03:00:06.574Z,98963.34
2023-03-16T03:01:08.331Z,98960.38
2023-03-16T03:02:11.254Z,98960.66
2023-03-16T03:03:14.099Z,98960.38
2023-03-16T03:04:16.162Z,98955.78
2023-03-16T03:05:17.988Z,98955.25
2023-03-16T03:06:19.799Z,98954.44
2023-03-16T03:07:22.207Z,98957.16
2023-03-16T03:08:24.097Z,98954.44
2023-03-16T03:09:25.881Z,98955.25
2023-03-16T03:10:28.447Z,98946.09
2023-03-16T03:11:30.795Z,98952.84
2023-03-16T03:12:34.148Z,98957.94
2023-03-16T03:13:38.238Z,98953.38
2023-03-16T03:14:40.412Z,98957.69
2023-03-16T03:15:42.312Z,98954.44
2023-03-16T03:16:46.663Z,98948.25
2023-03-16T03:17:48.743Z,98942.06
2023-03-16T03:18:52.694Z,98940.47
2023-03-16T03:19:54.757Z,98941.25
2023-03-16T03:20:56.593Z,98940.47
2023-03-16T03:21:58.362Z,98943.97
2023-03-16T03:23:00.543Z,98945.84
2023-03-16T03:24:02.573Z,98941.53
2023-03-16T03:25:04.753Z,98941.53
2023-03-16T03:26:07.115Z,98945.03
2023-03-16T03:27:08.997Z,98944.22
2023-03-16T03:28:11.412Z,98937.22
2023-03-16T03:29:13.219Z,98944.50
2023-03-16T03:30:20.303Z,98944.75
2023-03-16T03:31:23.285Z,98939.94
2023-03-16T03:32:25.232Z,98941.00
2023-03-16T03:33:28.090Z,98946.41
2023-03-16T03:34:31.360Z,98952.81
2023-03-16T03:35:33.266Z,98947.44
2023-03-16T03:36:35.271Z,98942.06
2023-03-16T03:37:37.111Z,98955.50
2023-03-16T03:38:39.592Z,98946.91
2023-03-16T03:39:41.347Z,98951.47
2023-03-16T03:40:43.156Z,98943.94
2023-03-16T03:41:44.942Z,98941.53
2023-03-16T03:42:47.518Z,98934.53
2023-03-16T03:43:49.323Z,98929.94
2023-03-16T03:44:52.826Z,98928.34
2023-03-16T03:45:59.843Z,98925.09
2023-03-16T03:47:01.931Z,98919.19
2023-03-16T03:48:04.086Z,98917.56
2023-03-16T03:49:05.897Z,98925.66
2023-03-16T03:50:11.148Z,98917.84
2023-03-16T03:51:12.976Z,98918.66
2023-03-16T03:52:14.849Z,98914.34
2023-03-16T03:53:17.814Z,98922.41
2023-03-16T03:54:19.699Z,98922.69
2023-03-16T03:55:21.487Z,98915.41
2023-03-16T03:56:23.354Z,98920.00
2023-03-16T03:57:25.314Z,98913.00
2023-03-16T03:58:27.143Z,98918.38
2023-03-16T03:59:29.257Z,98920.28
2023-03-16T04:00:31.143Z,98918.66
2023-03-16T04:01:33.022Z,98918.66
2023-03-16T04:02:35.302Z,98926.75
2023-03-16T04:03:37.205Z,98925.09
2023-03-16T04:04:40.369Z,98927.78
2023-03-16T04:05:42.226Z,98930.47
2023-03-16T04:06:44.142Z,98927.78
2023-03-16T04:07:45.989Z,98920.25
2023-03-16T04:08:47.750Z,98920.25
2023-03-16T04:09:49.674Z,98913.00
2023-03-16T04:10:51.557Z,98916.75
2023-03-16T04:11:53.355Z,98918.66
2023-03-16T04:13:00.309Z,98914.59
2023-03-16T04:14:02.197Z,98919.97
2023-03-16T04:15:05.218Z,98911.66
2023-03-16T04:16:07.409Z,98915.94
2023-03-16T04:17:09.330Z,98915.16
2023-03-16T04:18:16.989Z,98910.84
2023-03-16T04:19:18.836Z,98908.69
2023-03-16T04:20:21.772Z,98907.06
2023-03-16T04:21:24.267Z,98913.53
2023-03-16T04:22:26.538Z,98908.44
2023-03-16T04:23:28.324Z,98908.44
2023-03-16T04:24:30.268Z,98914.88
2023-03-16T04:25:32.087Z,98912.19
2023-03-16T04:26:34.293Z,98905.19
2023-03-16T04:27:38.860Z,98905.47
2023-03-16T04:28:41.039Z,98901.72
2023-03-16T04:29:43.698Z,98901.72
2023-03-16T04:30:45.578Z,98902.78
2023-03-16T04:31:47.638Z,98906.28
2023-03-16T04:32:49.585Z,98902.19
2023-03-16T04:33:54.613Z,98903.28
2023-03-16T04:34:56.414Z,98904.06
2023-03-16T04:35:58.980Z,98907.56
2023-03-16T04:37:02.286Z,98905.97
2023-03-16T04:38:04.273Z,98899.78
2023-03-16T04:39:06.700Z,98900.03
2023-03-16T04:40:19.459Z,98902.19
2023-03-16T04:41:21.244Z,98899.78
2023-03-16T04:42:23.334Z,98904.63
2023-03-16T04:43:25.255Z,98910.00
2023-03-16T04:44:27.149Z,98911.88
2023-03-16T04:45:29.022Z,98906.50
2023-03-16T04:46:31.057Z,98904.91
2023-03-16T04:47:33.948Z,98914.03
2023-03-16T04:48:37.060Z,98911.63
2023-03-16T04:49:39.155Z,98909.47
2023-03-16T04:50:41.107Z,98910.81
2023-03-16T04:51:42.908Z,98908.13
2023-03-16T04:52:44.767Z,98915.13
2023-03-16T04:53:46.583Z,98907.31
2023-03-16T04:54:48.550Z,98904.63
2023-03-16T04:55:51.223Z,98904.88
2023-03-16T04:56:53.087Z,98906.75
2023-03-16T04:57:54.899Z,98899.75
2023-03-16T04:58:59.404Z,98905.94
2023-03-16T05:00:01.293Z,98914.28
2023-03-16T05:01:03.069Z,98910.00
2023-03-16T05:02:04.871Z,98913.50
2023-03-16T05:03:10.125Z,98909.47
2023-03-16T05:04:18.922Z,98912.97
2023-03-16T05:05:22.259Z,98917.78
2023-03-16T05:06:24.077Z,98908.66
2023-03-16T05:07:25.881Z,98908.94
2023-03-16T05:08:27.743Z,98903.81
2023-03-16T05:09:31.140Z,98910.81
2023-03-16T05:10:34.577Z,98913.50
2023-03-16T05:11:36.678Z,98911.63
2023-03-16T05:12:38.678Z,98910.25
2023-03-16T05:13:40.643Z,98907.56
2023-03-16T05:14:42.461Z,98908.63
2023-03-16T05:15:44.384Z,98905.66
2023-03-16T05:16:46.280Z,98905.41
2023-03-16T05:17:48.117Z,98899.75
2023-03-16T05:18:50.096Z,98897.34
2023-03-16T05:19:51.974Z,98902.44
2023-03-16T05:20:58.176Z,98898.94
2023-03-16T05:21:59.958Z,98906.75
2023-03-16T05:23:01.834Z,98907.03
2023-03-16T05:24:05.741Z,98901.09
2023-03-16T05:25:08.133Z,98898.16
2023-03-16T05:26:10.221Z,98903.53
2023-03-16T05:27:12.134Z,98896.25
2023-03-16T05:28:14.925Z,98897.06
2023-03-16T05:29:16.772Z,98901.63
2023-03-16T05:30:19.237Z,98898.16
2023-03-16T05:31:21.288Z,98902.72
2023-03-16T05:32:23.107Z,98892.75
2023-03-16T05:33:25.552Z,98901.09
2023-03-16T05:34:27.735Z,98892.22
2023-03-16T05:35:30.833Z,98891.16
2023-03-16T05:36:32.776Z,98890.88
2023-03-16T05:37:38.070Z,98895.44
2023-03-16T05:38:39.903Z,98889.25
2023-03-16T05:39:41.694Z,98891.16
2023-03-16T05:40:43.910Z,98886.56
2023-03-16T05:41:45.778Z,98886.56
2023-03-16T05:42:54.024Z,98887.38
2023-03-16T05:43:55.908Z,98890.88
2023-03-16T05:44:57.676Z,98883.63
2023-03-16T05:45:59.489Z,98886.31
2023-03-16T05:47:01.404Z,98884.97
2023-03-16T05:48:05.741Z,98894.66
2023-03-16T05:49:07.800Z,98888.19
2023-03-16T05:50:12.827Z,98886.56
2023-03-16T05:51:14.615Z,98886.84
2023-03-16T05:52:16.438Z,98889.00
2023-03-16T05:53:18.963Z,98886.56
2023-03-16T05:54:20.828Z,98883.88
2023-03-16T05:55:23.501Z,98883.34
2023-03-16T05:56:27.719Z,98880.38
2023-03-16T05:57:29.517Z,98878.22
2023-03-16T05:58:33.930Z,98885.50
2023-03-16T05:59:35.868Z,98883.09
2023-03-16T06:00:39.468Z,98873.94
2023-03-16T06:01:41.289Z,98873.66
2023-03-16T06:02:48.956Z,98871.25
2023-03-16T06:03:52.172Z,98872.03
2023-03-16T06:04:54.684Z,98877.16
2023-03-16T06:05:56.439Z,98878.22
2023-03-16T06:06:58.327Z,98879.84
2023-03-16T06:08:00.239Z,98884.41
2023-03-16T06:09:02.105Z,98877.16
2023-03-16T06:10:05.213Z,98873.94
2023-03-16T06:11:07.760Z,98868.56
2023-03-16T06:12:09.875Z,98877.44
2023-03-16T06:13:11.735Z,98873.13
2023-03-16T06:14:13.614Z,98871.25
2023-03-16T06:15:15.417Z,98874.72
2023-03-16T06:16:17.569Z,98876.63
2023-03-16T06:17:19.366Z,98881.72
2023-03-16T06:18:21.331Z,98873.94
2023-03-16T06:19:23.293Z,98883.63
2023-03-16T06:20:25.078Z,98881.19
2023-03-16T06:21:27.225Z,98875.53
2023-03-16T06:22:30.357Z,98876.34
2023-03-16T06:23:32.352Z,98879.84
2023-03-16T06:24:34.476Z,98881.72
2023-03-16T06:25:37.764Z,98873.94
2023-03-16T06:26:41.140Z,98874.72
2023-03-16T06:27:43.479Z,98872.03
2023-03-16T06:28:45.340Z,98872.84
2023-03-16T06:29:47.921Z,98878.22
2023-03-16T06:30:53.970Z,98863.69
2023-03-16T06:31:57.067Z,98877.44
2023-03-16T06:33:00.144Z,98870.16
2023-03-16T06:34:02.489Z,98869.34
2023-03-16T06:35:05.964Z,98874.19
2023-03-16T06:36:08.680Z,98874.72
2023-03-16T06:37:10.789Z,98882.81
2023-03-16T06:38:12.571Z,98885.22
2023-03-16T06:39:14.534Z,98886.56
2023-03-16T06:40:16.785Z,98882.81
2023-03-16T06:41:18.672Z,98880.13
2023-03-16T06:42:20.581Z,98879.84
2023-03-16T06:43:22.700Z,98877.44
2023-03-16T06:44:24.932Z,98878.50
2023-03-16T06:45:27.227Z,98873.13
2023-03-16T06:46:29.203Z,98876.63
2023-03-16T06:47:31.819Z,98877.44
2023-03-16T06:48:33.803Z,98875.53
2023-03-16T06:49:35.828Z,98882.81
2023-03-16T06:50:37.966Z,98872.31
2023-03-16T06:51:39.798Z,98881.19
2023-03-16T06:52:41.716Z,98882.00
2023-03-16T06:53:43.487Z,98875.53
2023-03-16T06:54:45.336Z,98877.44
2023-03-16T06:55:47.116Z,98885.50
2023-03-16T06:56:48.946Z,98881.19
2023-03-16T06:57:50.784Z,98886.56
2023-03-16T06:58:52.625Z,98883.09
2023-03-16T06:59:54.528Z,98889.53
2023-03-16T07:00:56.415Z,98886.84
2023-03-16T07:01:58.257Z,98886.56
2023-03-16T07:03:01.949Z,98891.41
2023-03-16T07:04:03.731Z,98892.22
2023-03-16T07:05:07.369Z,98893.31
2023-03-16T07:06:09.563Z,98889.53
2023-03-16T07:07:12.042Z,98899.50
2023-03-16T07:08:15.106Z,98896.81
2023-03-16T07:09:16.976Z,98900.31
2023-03-16T07:10:19.507Z,98898.69
2023-03-16T07:11:21.735Z,98900.31
2023-03-16T07:12:23.511Z,98902.72
2023-03-16T07:13:25.895Z,98904.59
2023-03-16T07:14:27.788Z,98903.53
2023-03-16T07:15:29.671Z,98904.34
2023-03-16T07:16:32.123Z,98903.53
2023-03-16T07:17:34.176Z,98907.28
2023-03-16T07:18:38.043Z,98911.31
2023-03-16T07:19:39.856Z,98905.94
2023-03-16T07:20:42.077Z,98909.44
2023-03-16T07:21:43.996Z,98912.13
2023-03-16T07:22:46.184Z,98910.50
2023-03-16T07:23:48.307Z,98910.25
2023-03-16T07:24:57.248Z,98908.63
2023-03-16T07:25:59.053Z,98913.75
2023-03-16T07:27:01.798Z,98909.19
2023-03-16T07:28:03.853Z,98908.38
2023-03-16T07:29:06.397Z,98915.38
2023-03-16T07:30:12.039Z,98913.75
2023-03-16T07:31:14.782Z,98910.53
2023-03-16T07:32:16.672Z,98907.31
2023-03-16T07:33:18.734Z,98910.53
2023-03-16T07:34:21.169Z,98914.84
2023-03-16T07:35:23.990Z,98911.34
2023-03-16T07:36:26.024Z,98910.25
2023-03-16T07:37:27.891Z,98915.66
2023-03-16T07:38:30.490Z,98915.13
2023-03-16T07:39:32.301Z,98918.88
2023-03-16T07:40:34.801Z,98913.50
2023-03-16T07:41:36.682Z,98911.63
2023-03-16T07:42:38.589Z,98909.19
2023-03-16T07:43:40.451Z,98907.31
2023-03-16T07:44:42.341Z,98904.34
2023-03-16T07:45:50.049Z,98915.66
2023-03-16T07:46:51.941Z,98911.88
2023-03-16T07:47:53.951Z,98911.06
2023-03-16T07:48:55.743Z,98914.84
2023-03-16T07:49:57.792Z,98912.16
2023-03-16T07:50:59.570Z,98911.88
2023-03-16T07:52:01.587Z,98907.31
2023-03-16T07:53:05.167Z,98906.22
2023-03-16T07:54:07.044Z,98898.16
2023-03-16T07:55:10.462Z,98905.94
2023-03-16T07:56:12.460Z,98907.56
2023-03-16T07:57:14.500Z,98908.13
2023-03-16T07:58:16.410Z,98910.00
2023-03-16T07:59:20.799Z,98905.44
2023-03-16T08:00:24.134Z,98910.28
2023-03-16T08:01:26.101Z,98907.59
2023-03-16T08:02:28.047Z,98904.91
2023-03-16T08:03:32.071Z,98915.66
2023-03-16T08:04:34.360Z,98902.72
2023-03-16T08:05:36.220Z,98903.28
2023-03-16T08:06:38.397Z,98910.25
2023-03-16T08:07:41.207Z,98906.53
2023-03-16T08:08:43.124Z,98908.16
2023-03-16T08:09:44.946Z,98905.47
2023-03-16T08:10:56.536Z,98908.16
2023-03-16T08:11:58.503Z,98903.03
2023-03-16T08:13:00.362Z,98911.94
2023-03-16T08:14:02.197Z,98906.81
2023-03-16T08:15:05.805Z,98912.19
2023-03-16T08:16:10.337Z,98910.84
2023-03-16T08:17:12.812Z,98906.25
2023-03-16T08:18:14.664Z,98903.31
2023-03-16T08:19:17.812Z,98903.31
2023-03-16T08:20:21.104Z,98897.13
2023-03-16T08:21:24.040Z,98901.16
2023-03-16T08:22:26.374Z,98898.72
2023-03-16T08:23:29.411Z,98903.31
2023-03-16T08:24:32.695Z,98903.03
2023-03-16T08:25:34.663Z,98910.81
2023-03-16T08:26:39.241Z,98905.44
2023-03-16T08:27:42.964Z,98909.50
2023-03-16T08:28:46.689Z,98906.53
2023-03-16T08:29:53.163Z,98900.59
2023-03-16T08:30:55.554Z,98910.56
2023-03-16T08:31:57.594Z,98904.91
2023-03-16T08:33:01.497Z,98894.97
2023-03-16T08:34:04.283Z,98898.19
2023-03-16T08:35:09.615Z,98895.75
2023-03-16T08:36:15.394Z,98894.94
2023-03-16T08:37:17.333Z,98894.94
2023-03-16T08:38:20.210Z,98890.38
2023-03-16T08:39:22.637Z,98883.09
2023-03-16T08:40:25.355Z,98884.72
2023-03-16T08:41:30.750Z,98882.53
2023-03-16T08:42:32.525Z,98880.38
2023-03-16T08:43:35.016Z,98881.75
2023-03-16T08:44:36.961Z,98877.69
2023-03-16T08:45:38.822Z,98877.13
2023-03-16T08:46:40.853Z,98873.63
2023-03-16T08:47:43.860Z,98867.19
2023-03-16T08:48:45.698Z,98867.72
2023-03-16T08:49:47.487Z,98868.81
2023-03-16T08:50:49.295Z,98870.94
2023-03-16T08:51:51.263Z,98876.59
2023-03-16T08:52:53.517Z,98871.47
2023-03-16T08:53:55.826Z,98871.47
2023-03-16T08:55:03.390Z,98865.00
2023-03-16T08:56:09.375Z,98872.53
2023-03-16T08:57:12.230Z,98871.47
2023-03-16T08:58:15.392Z,98871.47
2023-03-16T08:59:28.992Z,98871.47
2023-03-16T09:00:31.628Z,98867.94
2023-03-16T09:01:34.623Z,98875.22
2023-03-16T09:02:38.521Z,98877.91
2023-03-16T09:03:42.309Z,98876.84
2023-03-16T09:04:44.211Z,98866.06
2023-03-16T09:05:46.223Z,98876.31
2023-03-16T09:07:05.802Z,98878.44
2023-03-16T09:08:10.019Z,98874.44
2023-03-16T09:09:11.944Z,98865.00
2023-03-16T09:10:16.103Z,98870.41
2023-03-16T09:11:19.993Z,98873.63
2023-03-16T09:12:22.342Z,98874.44
2023-03-16T09:13:24.530Z,98871.72
2023-03-16T09:14:26.450Z,98875.75
2023-03-16T09:15:29.119Z,98856.91
2023-03-16T09:16:31.076Z,98865.50
2023-03-16T09:17:33.484Z,98868.19
2023-03-16T09:18:36.538Z,98871.41
2023-03-16T09:19:55.115Z,98875.75
2023-03-16T09:21:03.600Z,98866.03
2023-03-16T09:22:05.479Z,98865.50
2023-03-16T09:23:07.354Z,98866.31
2023-03-16T09:24:09.323Z,98870.63
2023-03-16T09:25:11.340Z,98864.41
2023-03-16T09:26:14.841Z,98859.31
2023-03-16T09:27:17.845Z,98860.13
2023-03-16T09:28:22.089Z,98860.91
2023-03-16T09:29:24.579Z,98855.78
2023-03-16T09:30:26.801Z,98855.78
2023-03-16T09:31:28.715Z,98857.66
2023-03-16T09:32:31.172Z,98851.72
2023-03-16T09:33:33.814Z,98845.00
2023-03-16T09:34:36.044Z,98856.31
2023-03-16T09:35:38.119Z,98851.72
2023-03-16T09:36:40.847Z,98854.13
2023-03-16T09:37:55.439Z,98857.66
2023-03-16T09:39:04.705Z,98853.03
2023-03-16T09:40:12.038Z,98849.81
2023-03-16T09:42:07.542Z,98841.28
2023-03-16T09:43:33.528Z,98845.66
2023-03-16T09:44:40.776Z,98844.09
2023-03-16T09:46:06.609Z,98847.31
2023-03-16T09:47:13.122Z,98843.28
2023-03-16T09:48:17.374Z,98840.59
2023-03-16T09:49:25.933Z,98839.81
2023-03-16T09:50:47.330Z,98839.50
2023-03-16T09:52:34.056Z,98835.09
2023-03-16T09:53:39.439Z,98841.91
2023-03-16T09:55:31.720Z,98839.91
2023-03-16T09:56:43.385Z,98842.91
2023-03-16T09:57:46.424Z,98833.56
2023-03-16T09:58:48.252Z,98838.44
2023-03-16T09:59:50.101Z,98840.31
2023-03-16T10:02:10.868Z,98836.34
2023-03-16T10:03:43.316Z,98837.47
2023-03-16T10:05:03.064Z,98844.25
2023-03-16T10:06:11.535Z,98849.41
2023-03-16T10:07:32.521Z,98844.78
2023-03-16T10:09:21.663Z,98836.09
2023-03-16T10:10:38.344Z,98840.19
2023-03-16T10:11:49.814Z,98829.69
2023-03-16T10:12:59.142Z,98830.25
2023-03-16T10:14:47.960Z,98835.19
2023-03-16T10:15:53.352Z,98837.78
2023-03-16T10:17:03.504Z,98837.50
2023-03-16T10:18:13.457Z,98831.84
2023-03-16T10:19:30.723Z,98829.69
2023-03-16T10:20:35.213Z,98822.41
2023-03-16T10:21:41.703Z,98819.97
2023-03-16T10:22:47.556Z,98820.22
2023-03-16T10:23:51.982Z,98814.84
2023-03-16T10:25:19.624Z,98818.31
2023-03-16T10:26:36.849Z,98809.63
2023-03-16T10:27:43.397Z,98804.53
2023-03-16T10:28:46.354Z,98802.94
2023-03-16T10:29:48.833Z,98802.13
2023-03-16T10:30:54.547Z,98801.84
2023-03-16T10:32:12.465Z,98797.47
2023-03-16T10:33:27.566Z,98796.34
2023-03-16T10:34:30.683Z,98798.84
2023-03-16T10:35:48.312Z,98790.69
2023-03-16T10:36:53.073Z,98795.88
2023-03-16T10:37:56.630Z,98801.25
2023-03-16T10:39:10.478Z,98802.56
2023-03-16T10:40:12.963Z,98796.91
2023-03-16T10:41:29.888Z,98803.59
2023-03-16T10:42:31.659Z,98799.06
2023-03-16T10:43:35.661Z,98799.31
2023-03-16T10:44:40.292Z,98802.28
2023-03-16T10:45:43.667Z,98803.34
2023-03-16T10:47:04.873Z,98806.44
2023-03-16T10:48:18.910Z,98806.72
2023-03-16T10:49:41.995Z,98803.50
2023-03-16T10:50:50.254Z,98807.53
2023-03-16T10:52:00.035Z,98803.50
2023-03-16T10:53:02.746Z,98803.81
2023-03-16T10:54:15.552Z,98806.44
2023-03-16T10:55:28.949Z,98803.72
2023-03-16T10:56:38.363Z,98794.00
2023-03-16T10:57:53.784Z,98795.28
2023-03-16T10:58:56.287Z,98794.81
2023-03-16T11:00:20.648Z,98794.97
2023-03-16T11:01:29.347Z,98792.56
2023-03-16T11:02:35.202Z,98788.25
2023-03-16T11:03:41.707Z,98791.47
2023-03-16T11:04:43.660Z,98786.94
2023-03-16T11:05:46.086Z,98788.56
2023-03-16T11:06:55.962Z,98791.47
2023-03-16T11:08:23.854Z,98786.16
2023-03-16T11:09:34.721Z,98788.69
2023-03-16T11:10:52.989Z,98782.00
2023-03-16T11:11:57.229Z,98786.81
2023-03-16T11:13:11.214Z,98782.13
2023-03-16T11:14:17.103Z,98780.31
2023-03-16T11:15:25.843Z,98784.94
2023-03-16T11:16:43.744Z,98773.72
2023-03-16T11:17:53.524Z,98779.97
2023-03-16T11:19:36.841Z,98780.31
2023-03-16T11:20:39.692Z,98775.38
2023-03-16T11:21:55.124Z,98776.63
2023-03-16T11:22:58.387Z,98775.09
2023-03-16T11:24:04.464Z,98772.38
2023-03-16T11:25:21.401Z,98761.69
2023-03-16T11:26:40.676Z,98758.78
2023-03-16T11:27:56.063Z,98756.50
2023-03-16T11:29:11.410Z,98765.72
2023-03-16T11:30:36.993Z,98762.31
2023-03-16T11:32:00.762Z,98775.25
2023-03-16T11:33:04.086Z,98771.09
2023-03-16T11:34:19.187Z,98768.59
2023-03-16T11:35:29.827Z,98777.03
2023-03-16T11:36:53.469Z,98769.00
2023-03-16T11:38:19.124Z,98766.56
2023-03-16T11:40:19.332Z,98756.94
2023-03-16T11:41:53.426Z,98752.44
2023-03-16T11:43:06.546Z,98748.69
2023-03-16T11:44:34.875Z,98750.19
2023-03-16T11:46:22.801Z,98752.53
2023-03-16T11:47:54.049Z,98746.84
2023-03-16T11:49:46.344Z,98746.69
2023-03-16T11:51:04.203Z,98738.13
2023-03-16T11:52:23.559Z,98732.28
2023-03-16T11:53:53.293Z,98740.34
2023-03-16T11:55:16.131Z,98735.50
2023-03-16T11:56:27.274Z,98734.28
2023-03-16T11:58:02.703Z,98731.97
2023-03-16T11:59:29.707Z,98729.28
2023-03-16T12:00:52.420Z,98735.06
2023-03-16T12:02:17.365Z,98738.34
2023-03-16T12:03:32.123Z,98733.88
2023-03-16T12:04:51.783Z,98734.75
2023-03-16T12:06:43.443Z,98737.56
2023-03-16T12:08:48.226Z,98741.56
2023-03-16T12:10:22.301Z,98729.75
2023-03-16T12:11:30.760Z,98731.38
2023-03-16T12:12:58.309Z,98720.28
2023-03-16T12:14:33.918Z,98723.69
2023-03-16T12:15:48.141Z,98727.91
2023-03-16T12:17:17.559Z,98715.44
2023-03-16T12:18:51.608Z,98722.09
2023-03-16T12:20:17.095Z,98712.56
2023-03-16T12:21:25.043Z,98721.53
2023-03-16T12:22:42.144Z,98723.94
2023-03-16T12:23:59.675Z,98713.13
2023-03-16T12:25:05.566Z,98705.41
2023-03-16T12:26:08.913Z,98709.47
2023-03-16T12:27:19.055Z,98703.78
2023-03-16T12:28:27.771Z,98701.91
2023-03-16T12:29:42.689Z,98703.78
2023-03-16T12:31:04.847Z,98706.19
2023-03-16T12:32:22.499Z,98707.00
2023-03-16T12:33:45.379Z,98700.97
2023-03-16T12:35:03.453Z,98701.31
2023-03-16T12:36:37.195Z,98703.69
2023-03-16T12:37:44.631Z,98702.47
2023-03-16T12:39:09.883Z,98691.81
2023-03-16T12:40:50.028Z,98694.88
2023-03-16T12:41:57.362Z,98688.69
2023-03-16T12:43:24.520Z,98687.00
2023-03-16T12:44:48.960Z,98680.09
2023-03-16T12:46:18.621Z,98682.69
2023-03-16T12:48:04.141Z,98683.91
2023-03-16T12:49:09.917Z,98683.06
2023-03-16T12:50:18.908Z,98675.47
2023-03-16T12:51:20.789Z,98679.31
2023-03-16T12:52:22.715Z,98669.63
2023-03-16T12:53:52.341Z,98671.03
2023-03-16T12:55:08.446Z,98674.59
2023-03-16T12:56:17.732Z,98679.78
2023-03-16T12:57:24.679Z,98670.38
2023-03-16T12:58:27.506Z,98666.63
2023-03-16T12:59:44.156Z,98667.09
2023-03-16T13:00:59.502Z,98669.75
2023-03-16T13:02:03.677Z,98659.59
2023-03-16T13:03:14.150Z,98666.28